Time;durP1;ratioP1;P1;durP2;ratioP2;P2;SDS_P1;SDS_P2;PMS_P1;PMS_P2;Temp;Humidity;BMP_temperature;BMP_pressure;BME280_temperature;BME280_humidity;BME280_pressure;Samples;Min_cycle;Max_cycle;Signal;HPM_P1;HPM_P2
2023/05/17 00:02:12;;;;;;;20.45;5.43;;;;;;;;;;5032849;28;20126;-70
2023/05/17 00:04:39;;;;;;;21.30;5.47;;;;;;;;;;5033681;28;20466;-70
2023/05/17 00:07:05;;;;;;;23.33;5.50;;;;;;;;;;5033415;28;20050;-70
2023/05/17 00:09:31;;;;;;;23.27;5.50;;;;;;;;;;5032124;28;20121;-70
2023/05/17 00:11:57;;;;;;;19.67;4.82;;;;;;;;;;5033530;28;20503;-70
2023/05/17 00:14:23;;;;;;;20.17;5.07;;;;;;;;;;5033358;28;20132;-70
2023/05/17 00:16:49;;;;;;;17.67;4.28;;;;;;;;;;5033164;28;20042;-70
2023/05/17 00:19:15;;;;;;;17.30;4.47;;;;;;;;;;5017055;28;20104;-70
2023/05/17 00:21:41;;;;;;;19.27;4.32;;;;;;;;;;5031679;28;20059;-70
2023/05/17 00:24:08;;;;;;;18.88;4.13;;;;;;;;;;5014826;28;20080;-70
2023/05/17 00:26:34;;;;;;;22.05;3.95;;;;;;;;;;5013797;28;20052;-70
2023/05/17 00:29:00;;;;;;;18.52;4.05;;;;;;;;;;5032596;28;20044;-70
2023/05/17 00:31:26;;;;;;;23.00;3.58;;;;;;;;;;5030951;28;20045;-70
2023/05/17 00:33:52;;;;;;;20.65;3.75;;;;;;;;;;5029175;28;20064;-70
2023/05/17 00:36:19;;;;;;;24.30;4.07;;;;;;;;;;5029096;28;20053;-70
2023/05/17 00:38:45;;;;;;;24.70;4.35;;;;;;;;;;5013999;28;20120;-70
2023/05/17 00:41:11;;;;;;;20.10;4.00;;;;;;;;;;5021514;28;20069;-69
2023/05/17 00:43:38;;;;;;;23.80;3.65;;;;;;;;;;5018888;28;20062;-70
2023/05/17 00:46:04;;;;;;;24.90;4.65;;;;;;;;;;5028114;28;20484;-69
2023/05/17 00:48:30;;;;;;;26.15;4.55;;;;;;;;;;5029500;28;20058;-69
2023/05/17 00:50:56;;;;;;;26.00;4.20;;;;;;;;;;5022129;28;20049;-70
2023/05/17 00:53:22;;;;;;;24.95;4.45;;;;;;;;;;5028608;28;20050;-70
2023/05/17 00:55:48;;;;;;;21.55;4.88;;;;;;;;;;5031518;28;20045;-70
2023/05/17 00:58:14;;;;;;;19.13;3.72;;;;;;;;;;5015187;28;20045;-70
2023/05/17 01:00:41;;;;;;;21.27;4.22;;;;;;;;;;5031486;28;20470;-70
2023/05/17 01:03:07;;;;;;;20.40;4.00;;;;;;;;;;5032725;28;20052;-70
2023/05/17 01:05:33;;;;;;;19.38;4.50;;;;;;;;;;5002044;28;20053;-70
2023/05/17 01:07:59;;;;;;;18.88;4.13;;;;;;;;;;5018483;28;20053;-70
2023/05/17 01:10:48;;;;;;;24.50;3.92;;;;;;;;;;5022550;28;20107;-70
2023/05/17 01:13:15;;;;;;;25.00;4.70;;;;;;;;;;5017586;28;20141;-70
2023/05/17 01:15:53;;;;;;;19.80;4.13;;;;;;;;;;5031150;28;20046;-69
2023/05/17 01:18:24;;;;;;;19.70;4.05;;;;;;;;;;5033096;28;20045;-70
2023/05/17 01:20:50;;;;;;;26.38;4.78;;;;;;;;;;5024112;28;20408;-70
2023/05/17 01:23:35;;;;;;;27.55;4.68;;;;;;;;;;5009612;28;20050;-70
2023/05/17 01:26:13;;;;;;;24.00;4.63;;;;;;;;;;5032655;28;20578;-70
2023/05/17 01:28:40;;;;;;;21.25;3.97;;;;;;;;;;5032525;28;20503;-70
2023/05/17 01:31:07;;;;;;;27.77;4.40;;;;;;;;;;5031685;28;20555;-70
2023/05/17 01:33:33;;;;;;;24.65;4.20;;;;;;;;;;5030407;28;20095;-69
2023/05/17 01:35:59;;;;;;;23.10;3.95;;;;;;;;;;5031323;28;20037;-70
2023/05/17 01:38:25;;;;;;;23.83;4.50;;;;;;;;;;5018082;28;20057;-70
2023/05/17 01:40:54;;;;;;;26.48;4.20;;;;;;;;;;5030289;28;20052;-69
2023/05/17 01:43:47;;;;;;;24.30;4.80;;;;;;;;;;5018967;28;20077;-70
2023/05/17 01:46:22;;;;;;;23.08;4.13;;;;;;;;;;4990670;28;20061;-70
2023/05/17 01:49:00;;;;;;;20.45;3.85;;;;;;;;;;5025572;28;20060;-70
2023/05/17 01:51:28;;;;;;;24.73;4.30;;;;;;;;;;5022728;28;20038;-70
2023/05/17 01:54:01;;;;;;;19.48;3.47;;;;;;;;;;5023578;28;20042;-69
2023/05/17 01:56:30;;;;;;;23.45;4.03;;;;;;;;;;5023566;28;20049;-69
2023/05/17 01:58:58;;;;;;;26.63;4.22;;;;;;;;;;5028868;28;20411;-69
2023/05/17 02:01:27;;;;;;;21.08;4.00;;;;;;;;;;5030100;28;20049;-70
2023/05/17 02:03:53;;;;;;;21.55;4.15;;;;;;;;;;5032295;28;21338;-69
2023/05/17 02:06:19;;;;;;;24.10;4.35;;;;;;;;;;5031333;28;20045;-70
2023/05/17 02:08:45;;;;;;;27.13;4.30;;;;;;;;;;5020028;28;20476;-70
2023/05/17 02:11:11;;;;;;;22.65;4.20;;;;;;;;;;5016158;28;20099;-70
2023/05/17 02:13:37;;;;;;;18.55;3.20;;;;;;;;;;5033146;28;20038;-70
2023/05/17 02:16:04;;;;;;;27.13;4.45;;;;;;;;;;5016772;28;20399;-70
2023/05/17 02:18:31;;;;;;;25.38;4.55;;;;;;;;;;5033450;28;20452;-70
2023/05/17 02:20:57;;;;;;;21.58;4.50;;;;;;;;;;5016301;28;20045;-70
2023/05/17 02:23:23;;;;;;;20.23;4.10;;;;;;;;;;5015774;28;20048;-70
2023/05/17 02:25:50;;;;;;;26.35;4.55;;;;;;;;;;5034860;28;20127;-70
2023/05/17 02:28:16;;;;;;;28.48;4.57;;;;;;;;;;5035505;28;20049;-70
2023/05/17 02:30:43;;;;;;;25.83;3.97;;;;;;;;;;5033563;28;20053;-70
2023/05/17 02:33:09;;;;;;;24.00;4.35;;;;;;;;;;5034766;28;20049;-69
2023/05/17 02:35:35;;;;;;;24.45;3.95;;;;;;;;;;5015279;28;20525;-70
2023/05/17 02:38:01;;;;;;;23.35;4.20;;;;;;;;;;5035171;28;20407;-70
2023/05/17 02:40:27;;;;;;;21.48;4.35;;;;;;;;;;5033417;28;20136;-70
2023/05/17 02:42:53;;;;;;;23.30;3.75;;;;;;;;;;5008200;28;20053;-70
2023/05/17 02:45:19;;;;;;;25.35;4.40;;;;;;;;;;5029887;28;20089;-70
2023/05/17 02:47:45;;;;;;;26.08;4.22;;;;;;;;;;5015415;28;20503;-71
2023/05/17 02:50:11;;;;;;;24.27;4.13;;;;;;;;;;5028035;28;20053;-70
2023/05/17 02:52:38;;;;;;;23.23;4.20;;;;;;;;;;5019305;28;20116;-69
2023/05/17 02:55:04;;;;;;;18.80;4.10;;;;;;;;;;5029013;28;20041;-70
2023/05/17 02:57:30;;;;;;;22.00;3.38;;;;;;;;;;5024076;28;20046;-70
2023/05/17 02:59:56;;;;;;;17.90;3.63;;;;;;;;;;5014849;28;20045;-70
2023/05/17 03:02:22;;;;;;;20.13;3.83;;;;;;;;;;5005697;28;20384;-70
2023/05/17 03:04:48;;;;;;;24.50;3.70;;;;;;;;;;5009140;28;20119;-70
2023/05/17 03:07:14;;;;;;;19.33;3.50;;;;;;;;;;5006647;28;20057;-70
2023/05/17 03:09:41;;;;;;;21.92;3.42;;;;;;;;;;5023662;28;20096;-70
2023/05/17 03:12:08;;;;;;;20.70;3.72;;;;;;;;;;5032136;28;20480;-69
2023/05/17 03:14:34;;;;;;;21.73;3.70;;;;;;;;;;5031382;28;20381;-70
2023/05/17 03:17:00;;;;;;;24.23;4.25;;;;;;;;;;5010424;28;20484;-70
2023/05/17 03:19:26;;;;;;;19.50;3.33;;;;;;;;;;5032081;28;20423;-70
2023/05/17 03:21:52;;;;;;;21.52;3.75;;;;;;;;;;5030241;28;20411;-69
2023/05/17 03:24:18;;;;;;;18.80;3.50;;;;;;;;;;5028406;28;20668;-70
2023/05/17 03:26:44;;;;;;;20.90;3.13;;;;;;;;;;5026879;28;20099;-70
2023/05/17 03:29:10;;;;;;;25.55;4.03;;;;;;;;;;5031479;28;20037;-70
2023/05/17 03:31:36;;;;;;;20.98;3.67;;;;;;;;;;5032239;28;20084;-70
2023/05/17 03:34:02;;;;;;;21.05;3.35;;;;;;;;;;5019461;28;20041;-70
2023/05/17 03:36:30;;;;;;;20.38;3.85;;;;;;;;;;5030492;28;20475;-70
2023/05/17 03:38:56;;;;;;;20.42;3.45;;;;;;;;;;5030142;28;20125;-70
2023/05/17 03:41:22;;;;;;;19.88;3.42;;;;;;;;;;5025372;28;20091;-70
2023/05/17 03:43:48;;;;;;;20.92;2.92;;;;;;;;;;5006683;28;20080;-70
2023/05/17 03:46:14;;;;;;;20.45;3.83;;;;;;;;;;5022718;28;20496;-70
2023/05/17 03:48:40;;;;;;;22.33;3.40;;;;;;;;;;5009769;28;20099;-71
2023/05/17 03:51:06;;;;;;;18.23;3.80;;;;;;;;;;5028861;28;20042;-70
2023/05/17 03:53:32;;;;;;;22.60;3.88;;;;;;;;;;5004219;28;20092;-70
2023/05/17 03:55:58;;;;;;;20.73;3.75;;;;;;;;;;5028502;28;20190;-70
2023/05/17 03:58:24;;;;;;;19.17;3.30;;;;;;;;;;5026219;28;20049;-70
2023/05/17 04:00:51;;;;;;;23.17;3.72;;;;;;;;;;5029161;28;20045;-69
2023/05/17 04:03:17;;;;;;;18.65;2.92;;;;;;;;;;5026362;28;20049;-70
2023/05/17 04:05:45;;;;;;;25.20;3.90;;;;;;;;;;5028784;28;20924;-70
2023/05/17 04:08:11;;;;;;;25.65;3.40;;;;;;;;;;5026617;28;20050;-70
2023/05/17 04:10:40;;;;;;;19.27;3.65;;;;;;;;;;5022704;28;20046;-70
2023/05/17 04:13:06;;;;;;;19.50;3.22;;;;;;;;;;5030838;28;20065;-71
2023/05/17 04:15:32;;;;;;;16.77;3.22;;;;;;;;;;5031778;28;20084;-70
2023/05/17 04:17:59;;;;;;;24.08;3.67;;;;;;;;;;5031952;28;20049;-70
2023/05/17 04:20:25;;;;;;;17.58;3.50;;;;;;;;;;5014662;28;20566;-70
2023/05/17 04:22:51;;;;;;;18.50;3.30;;;;;;;;;;5032481;28;20507;-71
2023/05/17 04:25:17;;;;;;;20.73;3.35;;;;;;;;;;5026851;28;20046;-71
2023/05/17 04:27:45;;;;;;;23.95;3.20;;;;;;;;;;5023952;28;20048;-70
2023/05/17 04:30:12;;;;;;;18.92;3.50;;;;;;;;;;5032068;28;20057;-70
2023/05/17 04:32:38;;;;;;;18.83;3.55;;;;;;;;;;5032014;28;20080;-70
2023/05/17 04:35:04;;;;;;;21.88;3.50;;;;;;;;;;5014272;28;20041;-70
2023/05/17 04:37:31;;;;;;;21.45;3.58;;;;;;;;;;5021025;28;20045;-70
2023/05/17 04:39:58;;;;;;;22.58;3.55;;;;;;;;;;5029150;28;20064;-70
2023/05/17 04:42:24;;;;;;;21.67;3.45;;;;;;;;;;5031312;28;20125;-70
2023/05/17 04:44:50;;;;;;;20.90;3.50;;;;;;;;;;5030790;28;20461;-70
2023/05/17 04:47:16;;;;;;;16.50;3.08;;;;;;;;;;5030148;28;20099;-70
2023/05/17 04:49:42;;;;;;;19.42;3.20;;;;;;;;;;5030961;28;20045;-70
2023/05/17 04:52:08;;;;;;;13.93;2.70;;;;;;;;;;5028025;28;20060;-70
2023/05/17 04:54:35;;;;;;;19.75;3.40;;;;;;;;;;5022740;28;20034;-71
2023/05/17 04:57:02;;;;;;;17.88;3.33;;;;;;;;;;5030774;28;20053;-71
2023/05/17 04:59:28;;;;;;;15.10;3.05;;;;;;;;;;5012390;28;20415;-71
2023/05/17 05:01:55;;;;;;;14.13;2.97;;;;;;;;;;5031887;28;20050;-70
2023/05/17 05:04:21;;;;;;;17.60;2.85;;;;;;;;;;5028376;28;20100;-70
2023/05/17 05:06:47;;;;;;;15.07;2.53;;;;;;;;;;5029415;28;20060;-70
2023/05/17 05:09:13;;;;;;;16.92;2.85;;;;;;;;;;5030717;28;20065;-70
2023/05/17 05:11:39;;;;;;;15.00;2.50;;;;;;;;;;5031575;28;20077;-70
2023/05/17 05:14:05;;;;;;;22.73;4.13;;;;;;;;;;5030956;28;20037;-70
2023/05/17 05:16:31;;;;;;;14.73;2.90;;;;;;;;;;5030042;28;20452;-71
2023/05/17 05:18:57;;;;;;;14.88;2.97;;;;;;;;;;5030025;28;20438;-71
2023/05/17 05:21:23;;;;;;;14.05;2.47;;;;;;;;;;5028589;28;20442;-71
2023/05/17 05:23:50;;;;;;;15.50;2.75;;;;;;;;;;5023033;28;20049;-70
2023/05/17 05:26:16;;;;;;;14.10;3.00;;;;;;;;;;5026180;28;20152;-71
2023/05/17 05:28:42;;;;;;;13.80;2.33;;;;;;;;;;5019194;28;20053;-70
2023/05/17 05:31:08;;;;;;;11.02;3.40;;;;;;;;;;5026721;28;20515;-70
2023/05/17 05:33:34;;;;;;;13.90;2.35;;;;;;;;;;5035760;28;20128;-71
2023/05/17 05:36:00;;;;;;;15.20;2.15;;;;;;;;;;5015836;28;20046;-71
2023/05/17 05:38:26;;;;;;;11.60;1.90;;;;;;;;;;5035041;28;20056;-71
2023/05/17 05:40:52;;;;;;;11.90;2.22;;;;;;;;;;5029412;28;20057;-71
2023/05/17 05:43:18;;;;;;;13.38;2.00;;;;;;;;;;5022517;28;20042;-71
2023/05/17 05:45:47;;;;;;;12.35;2.00;;;;;;;;;;5025357;28;20053;-71
2023/05/17 05:48:13;;;;;;;10.30;1.95;;;;;;;;;;5027412;28;20092;-70
2023/05/17 05:50:41;;;;;;;11.40;1.90;;;;;;;;;;5032293;28;20089;-70
2023/05/17 05:53:07;;;;;;;12.63;2.00;;;;;;;;;;5034436;28;20115;-70
2023/05/17 05:55:33;;;;;;;13.32;2.08;;;;;;;;;;5036965;28;20049;-70
2023/05/17 05:57:59;;;;;;;11.02;1.90;;;;;;;;;;5034096;28;20044;-70
2023/05/17 06:00:26;;;;;;;13.10;2.15;;;;;;;;;;5024397;28;20557;-70
2023/05/17 06:02:52;;;;;;;11.82;2.17;;;;;;;;;;5024575;28;20100;-70
2023/05/17 06:05:18;;;;;;;10.45;1.75;;;;;;;;;;5033876;28;20056;-70
2023/05/17 06:07:44;;;;;;;12.73;1.90;;;;;;;;;;5034248;28;20045;-71
2023/05/17 06:10:10;;;;;;;15.20;2.00;;;;;;;;;;5032355;28;20048;-70
2023/05/17 06:12:36;;;;;;;12.57;1.70;;;;;;;;;;5030012;28;20049;-70
2023/05/17 06:15:03;;;;;;;13.55;1.70;;;;;;;;;;5031942;28;20443;-70
2023/05/17 06:17:29;;;;;;;12.43;1.80;;;;;;;;;;5032010;28;20052;-70
2023/05/17 06:19:55;;;;;;;12.98;2.30;;;;;;;;;;5027844;28;20037;-70
2023/05/17 06:22:21;;;;;;;11.25;1.80;;;;;;;;;;5034177;28;20049;-70
2023/05/17 06:24:47;;;;;;;13.02;2.08;;;;;;;;;;5034897;28;20404;-70
2023/05/17 06:27:13;;;;;;;10.68;2.13;;;;;;;;;;5032709;28;20120;-71
2023/05/17 06:29:39;;;;;;;16.10;2.00;;;;;;;;;;5032469;28;20154;-70
2023/05/17 06:32:05;;;;;;;12.15;2.20;;;;;;;;;;5032880;28;20045;-70
2023/05/17 06:34:31;;;;;;;14.15;2.38;;;;;;;;;;4996858;28;20486;-70
2023/05/17 06:36:58;;;;;;;11.50;2.38;;;;;;;;;;5032082;28;20394;-70
2023/05/17 06:39:24;;;;;;;14.60;3.85;;;;;;;;;;5034638;28;20044;-70
2023/05/17 06:41:50;;;;;;;14.45;2.15;;;;;;;;;;5031586;28;20064;-69
2023/05/17 06:44:16;;;;;;;12.55;2.33;;;;;;;;;;5034107;28;20522;-70
2023/05/17 06:46:42;;;;;;;14.85;2.38;;;;;;;;;;5032182;28;20466;-70
2023/05/17 06:49:08;;;;;;;11.10;2.42;;;;;;;;;;5034295;28;20056;-70
2023/05/17 06:51:34;;;;;;;16.70;2.67;;;;;;;;;;5031866;28;20518;-70
2023/05/17 06:54:01;;;;;;;15.15;2.55;;;;;;;;;;5031386;28;20065;-70
2023/05/17 06:56:27;;;;;;;11.82;2.13;;;;;;;;;;5033250;28;20120;-70
2023/05/17 06:58:53;;;;;;;16.05;2.40;;;;;;;;;;5032935;28;20041;-70
2023/05/17 07:01:19;;;;;;;15.20;2.25;;;;;;;;;;5030573;28;20119;-70
2023/05/17 07:03:45;;;;;;;14.18;2.55;;;;;;;;;;5022131;28;20044;-71
2023/05/17 07:06:11;;;;;;;13.82;2.42;;;;;;;;;;5034118;28;20053;-72
2023/05/17 07:08:39;;;;;;;14.82;2.30;;;;;;;;;;5034143;28;20099;-70
2023/05/17 07:11:05;;;;;;;17.95;2.60;;;;;;;;;;5032560;28;20037;-71
2023/05/17 07:13:31;;;;;;;11.90;2.20;;;;;;;;;;5045608;28;20131;-70
2023/05/17 07:15:57;;;;;;;16.50;2.67;;;;;;;;;;5032619;28;20081;-70
2023/05/17 07:18:23;;;;;;;16.23;2.58;;;;;;;;;;5033748;28;20052;-70
2023/05/17 07:20:49;;;;;;;13.25;2.20;;;;;;;;;;5032484;28;20045;-70
2023/05/17 07:23:16;;;;;;;15.35;2.38;;;;;;;;;;5033660;28;20049;-70
2023/05/17 07:25:42;;;;;;;14.98;2.20;;;;;;;;;;5013615;28;20046;-70
2023/05/17 07:28:08;;;;;;;15.07;2.30;;;;;;;;;;5032353;28;20120;-70
2023/05/17 07:30:34;;;;;;;13.82;2.58;;;;;;;;;;5032793;28;20476;-70
2023/05/17 07:33:00;;;;;;;14.50;2.63;;;;;;;;;;5033530;28;20056;-70
2023/05/17 07:35:26;;;;;;;15.35;2.50;;;;;;;;;;5019139;28;20044;-70
2023/05/17 07:37:52;;;;;;;18.08;2.63;;;;;;;;;;5014508;28;20042;-70
2023/05/17 07:40:18;;;;;;;19.08;2.50;;;;;;;;;;5020179;28;20061;-70
2023/05/17 07:42:44;;;;;;;19.73;2.75;;;;;;;;;;5031058;28;20052;-69
2023/05/17 07:45:10;;;;;;;21.90;2.80;;;;;;;;;;5026803;28;20050;-69
2023/05/17 07:47:36;;;;;;;18.55;3.83;;;;;;;;;;5015794;28;20056;-69
2023/05/17 07:50:03;;;;;;;15.75;2.83;;;;;;;;;;5032165;28;20046;-69
2023/05/17 07:52:29;;;;;;;19.25;3.38;;;;;;;;;;5030788;28;20052;-69
2023/05/17 07:54:55;;;;;;;16.42;2.95;;;;;;;;;;5043442;28;20421;-69
2023/05/17 07:57:21;;;;;;;20.45;2.90;;;;;;;;;;5035450;28;20050;-70
2023/05/17 07:59:47;;;;;;;16.98;2.78;;;;;;;;;;5022263;28;20128;-69
2023/05/17 08:02:13;;;;;;;17.10;2.60;;;;;;;;;;5029044;28;20120;-70
2023/05/17 08:04:40;;;;;;;19.50;2.50;;;;;;;;;;5029351;28;20128;-69
2023/05/17 08:07:06;;;;;;;14.40;2.53;;;;;;;;;;5009019;28;20072;-70
2023/05/17 08:09:32;;;;;;;18.77;3.08;;;;;;;;;;5030375;28;20075;-70
2023/05/17 08:11:58;;;;;;;15.75;2.50;;;;;;;;;;5030199;28;20076;-70
2023/05/17 08:14:25;;;;;;;15.55;2.05;;;;;;;;;;5028943;28;20060;-70
2023/05/17 08:16:51;;;;;;;9.50;2.03;;;;;;;;;;5029723;28;20037;-70
2023/05/17 08:19:18;;;;;;;13.02;2.28;;;;;;;;;;5020517;28;20049;-70
2023/05/17 08:21:45;;;;;;;15.05;2.50;;;;;;;;;;5036193;28;20049;-70
2023/05/17 08:24:11;;;;;;;10.93;2.03;;;;;;;;;;5029033;28;20049;-70
2023/05/17 08:26:37;;;;;;;9.75;2.25;;;;;;;;;;5005199;28;20046;-70
2023/05/17 08:29:04;;;;;;;13.68;2.30;;;;;;;;;;5045341;28;20107;-70
2023/05/17 08:31:33;;;;;;;11.93;2.22;;;;;;;;;;5037654;28;20126;-70
2023/05/17 08:33:59;;;;;;;11.60;2.15;;;;;;;;;;5026474;28;20061;-70
2023/05/17 08:36:25;;;;;;;10.60;1.95;;;;;;;;;;5029219;28;20095;-70
2023/05/17 08:38:51;;;;;;;11.68;2.15;;;;;;;;;;5013794;28;20048;-70
2023/05/17 08:41:19;;;;;;;11.80;2.25;;;;;;;;;;5025424;28;20054;-70
2023/05/17 08:43:46;;;;;;;12.18;2.13;;;;;;;;;;5029854;28;20049;-70
2023/05/17 08:46:12;;;;;;;14.15;2.47;;;;;;;;;;5030318;28;20061;-70
2023/05/17 08:48:40;;;;;;;13.45;2.10;;;;;;;;;;5008328;28;20087;-70
2023/05/17 08:51:09;;;;;;;12.63;2.25;;;;;;;;;;5018359;28;20041;-70
2023/05/17 08:53:35;;;;;;;12.60;2.50;;;;;;;;;;5029718;28;20106;-70
2023/05/17 08:56:03;;;;;;;13.23;2.50;;;;;;;;;;5032038;28;20042;-70
2023/05/17 08:58:33;;;;;;;12.55;2.55;;;;;;;;;;5030830;28;20510;-70
2023/05/17 09:00:59;;;;;;;13.32;2.05;;;;;;;;;;5021406;28;20046;-70
2023/05/17 09:03:26;;;;;;;17.15;2.33;;;;;;;;;;5023296;28;20049;-70
2023/05/17 09:05:53;;;;;;;15.45;2.50;;;;;;;;;;5031952;28;20060;-70
2023/05/17 09:08:22;;;;;;;13.15;2.63;;;;;;;;;;5036322;28;20049;-70
2023/05/17 09:10:49;;;;;;;15.57;2.35;;;;;;;;;;5035273;28;20049;-70
2023/05/17 09:13:15;;;;;;;13.88;2.45;;;;;;;;;;5041746;28;20056;-70
2023/05/17 09:15:42;;;;;;;10.55;2.17;;;;;;;;;;5055958;28;20063;-70
2023/05/17 09:18:11;;;;;;;14.15;2.30;;;;;;;;;;5034984;28;20049;-70
2023/05/17 09:20:38;;;;;;;15.20;2.17;;;;;;;;;;5018233;28;20411;-70
2023/05/17 09:23:06;;;;;;;13.75;2.35;;;;;;;;;;5035423;28;20111;-70
2023/05/17 09:25:32;;;;;;;11.75;2.22;;;;;;;;;;5036198;28;20048;-70
2023/05/17 09:28:01;;;;;;;17.38;3.00;;;;;;;;;;5035493;28;20045;-70
2023/05/17 09:30:32;;;;;;;16.55;2.67;;;;;;;;;;5032123;28;20052;-70
2023/05/17 09:32:58;;;;;;;16.95;2.70;;;;;;;;;;5034190;28;20051;-70
2023/05/17 09:35:30;;;;;;;15.23;2.35;;;;;;;;;;5035882;28;20080;-71
2023/05/17 09:38:07;;;;;;;12.05;2.25;;;;;;;;;;5034342;28;20052;-70
2023/05/17 09:40:33;;;;;;;17.23;2.72;;;;;;;;;;5035795;28;20057;-70
2023/05/17 09:43:00;;;;;;;16.20;2.78;;;;;;;;;;5039192;28;20060;-70
2023/05/17 09:45:26;;;;;;;17.67;2.88;;;;;;;;;;5055398;28;20131;-70
2023/05/17 09:47:52;;;;;;;11.27;2.20;;;;;;;;;;5005896;28;20144;-71
2023/05/17 09:50:19;;;;;;;9.57;2.20;;;;;;;;;;5034605;28;20490;-70
2023/05/17 09:52:45;;;;;;;11.68;1.92;;;;;;;;;;5029475;28;20049;-70
2023/05/17 09:55:11;;;;;;;14.00;2.30;;;;;;;;;;5030500;28;20042;-70
2023/05/17 09:57:38;;;;;;;12.55;1.52;;;;;;;;;;5033693;28;20048;-70
2023/05/17 10:00:11;;;;;;;11.00;2.17;;;;;;;;;;5035047;28;20558;-70
2023/05/17 10:02:39;;;;;;;10.55;1.73;;;;;;;;;;5031093;28;20141;-70
2023/05/17 10:05:08;;;;;;;9.98;1.85;;;;;;;;;;5033542;28;20056;-70
2023/05/17 10:07:34;;;;;;;11.07;1.95;;;;;;;;;;5034409;28;20068;-70
2023/05/17 10:10:00;;;;;;;6.97;1.55;;;;;;;;;;5026264;28;20048;-70
2023/05/17 10:12:34;;;;;;;9.77;2.13;;;;;;;;;;5033419;28;20510;-70
2023/05/17 10:15:01;;;;;;;9.85;2.00;;;;;;;;;;5029990;28;20455;-70
2023/05/17 10:17:31;;;;;;;8.65;1.85;;;;;;;;;;5033301;28;20052;-70
2023/05/17 10:19:57;;;;;;;8.27;1.88;;;;;;;;;;5033695;28;20446;-71
2023/05/17 10:22:23;;;;;;;7.43;1.70;;;;;;;;;;5037548;28;20045;-71
2023/05/17 10:24:50;;;;;;;9.02;1.55;;;;;;;;;;5033103;28;20041;-70
2023/05/17 10:27:16;;;;;;;10.05;1.90;;;;;;;;;;5034619;28;20507;-70
2023/05/17 10:29:43;;;;;;;10.00;2.00;;;;;;;;;;5034542;28;20073;-70
2023/05/17 10:32:09;;;;;;;9.50;2.00;;;;;;;;;;5038980;28;20483;-71
2023/05/17 10:34:36;;;;;;;13.18;2.15;;;;;;;;;;5034704;28;20053;-70
2023/05/17 10:37:03;;;;;;;10.55;2.00;;;;;;;;;;5033331;28;20038;-70
2023/05/17 10:39:32;;;;;;;12.05;2.17;;;;;;;;;;5033548;28;20115;-70
2023/05/17 10:41:59;;;;;;;16.23;2.67;;;;;;;;;;5012514;28;20073;-70
2023/05/17 10:44:25;;;;;;;15.60;2.25;;;;;;;;;;5016790;28;20128;-70
2023/05/17 10:46:55;;;;;;;12.40;2.17;;;;;;;;;;5037869;28;20096;-70
2023/05/17 10:49:25;;;;;;;13.38;2.75;;;;;;;;;;5021330;28;20483;-70
2023/05/17 10:51:52;;;;;;;13.07;2.13;;;;;;;;;;5029760;28;20103;-70
2023/05/17 10:54:18;;;;;;;11.32;1.90;;;;;;;;;;5033959;28;20483;-70
2023/05/17 10:56:48;;;;;;;13.48;1.88;;;;;;;;;;5033110;28;20532;-70
2023/05/17 10:59:15;;;;;;;11.70;1.95;;;;;;;;;;5021726;28;20100;-70
2023/05/17 11:01:51;;;;;;;13.10;2.00;;;;;;;;;;5024273;28;20081;-71
2023/05/17 11:04:40;;;;;;;10.20;2.08;;;;;;;;;;5026283;28;20084;-71
2023/05/17 11:07:16;;;;;;;13.75;2.33;;;;;;;;;;5017509;28;20049;-71
2023/05/17 11:09:43;;;;;;;8.77;1.98;;;;;;;;;;5016441;28;20077;-71
2023/05/17 11:12:09;;;;;;;13.18;2.15;;;;;;;;;;5019282;28;20050;-70
2023/05/17 11:14:44;;;;;;;12.52;2.30;;;;;;;;;;5031659;28;20087;-71
2023/05/17 11:17:25;;;;;;;9.40;2.00;;;;;;;;;;5019868;28;20053;-71
2023/05/17 11:19:55;;;;;;;10.00;2.30;;;;;;;;;;5031572;28;20582;-71
2023/05/17 11:22:28;;;;;;;7.85;1.55;;;;;;;;;;5029530;28;20103;-71
2023/05/17 11:24:56;;;;;;;15.15;2.35;;;;;;;;;;5030038;28;20141;-72
2023/05/17 11:27:26;;;;;;;9.52;1.95;;;;;;;;;;5031687;28;20049;-71
2023/05/17 11:29:57;;;;;;;11.27;2.00;;;;;;;;;;5042922;28;20056;-72
2023/05/17 11:32:31;;;;;;;11.63;1.98;;;;;;;;;;5032206;28;20415;-72
2023/05/17 11:35:01;;;;;;;9.00;1.85;;;;;;;;;;5030535;28;20126;-72
2023/05/17 11:37:30;;;;;;;8.80;1.75;;;;;;;;;;5031178;28;20049;-71
2023/05/17 11:40:06;;;;;;;11.80;2.10;;;;;;;;;;5031498;28;20053;-71
2023/05/17 11:42:33;;;;;;;8.90;1.60;;;;;;;;;;5031675;28;20487;-71
2023/05/17 11:45:00;;;;;;;10.20;1.80;;;;;;;;;;5031823;28;20061;-71
2023/05/17 11:47:27;;;;;;;9.10;2.20;;;;;;;;;;5032522;28;20488;-71
2023/05/17 11:49:53;;;;;;;10.02;1.95;;;;;;;;;;5032264;28;20045;-71
2023/05/17 11:52:20;;;;;;;13.35;1.75;;;;;;;;;;5032391;28;20050;-71
2023/05/17 11:54:46;;;;;;;13.00;2.30;;;;;;;;;;5047595;28;20055;-71
2023/05/17 11:57:15;;;;;;;12.23;2.03;;;;;;;;;;5031122;28;20045;-71
2023/05/17 11:59:42;;;;;;;11.45;2.10;;;;;;;;;;5026598;28;20041;-71
2023/05/17 12:02:08;;;;;;;7.35;1.90;;;;;;;;;;5032456;28;20049;-71
2023/05/17 12:04:38;;;;;;;10.05;1.98;;;;;;;;;;5032317;28;20045;-71
2023/05/17 12:07:04;;;;;;;13.18;2.03;;;;;;;;;;5026430;28;20451;-71
2023/05/17 12:09:30;;;;;;;8.93;1.95;;;;;;;;;;5030738;28;20418;-71
2023/05/17 12:11:58;;;;;;;8.73;2.10;;;;;;;;;;5031605;28;20053;-71
2023/05/17 12:14:24;;;;;;;12.18;2.10;;;;;;;;;;5031019;28;20640;-71
2023/05/17 12:16:52;;;;;;;14.15;2.17;;;;;;;;;;5030341;28;20076;-71
2023/05/17 12:19:20;;;;;;;10.57;2.08;;;;;;;;;;5026322;28;20518;-72
2023/05/17 12:21:47;;;;;;;10.38;1.98;;;;;;;;;;5030008;28;20127;-71
2023/05/17 12:24:13;;;;;;;7.82;1.80;;;;;;;;;;5029328;28;20139;-71
2023/05/17 12:26:45;;;;;;;9.90;2.20;;;;;;;;;;5030240;28;20042;-71
2023/05/17 12:29:16;;;;;;;11.02;1.90;;;;;;;;;;5018447;28;20050;-71
2023/05/17 12:31:50;;;;;;;10.35;1.88;;;;;;;;;;5025598;28;20081;-71
2023/05/17 12:34:17;;;;;;;8.20;2.30;;;;;;;;;;5032611;28;20053;-71
2023/05/17 12:36:44;;;;;;;12.02;2.17;;;;;;;;;;5031350;28;20089;-71
2023/05/17 12:39:11;;;;;;;14.13;2.40;;;;;;;;;;5015453;28;20050;-71
2023/05/17 12:41:38;;;;;;;8.27;1.92;;;;;;;;;;5026661;28;20046;-71
2023/05/17 12:44:05;;;;;;;8.63;1.88;;;;;;;;;;5025200;28;20069;-71
2023/05/17 12:46:31;;;;;;;12.23;1.75;;;;;;;;;;5014037;28;20083;-71
2023/05/17 12:49:01;;;;;;;15.20;2.25;;;;;;;;;;5026984;28;20411;-71
2023/05/17 12:51:27;;;;;;;10.35;2.05;;;;;;;;;;5031446;28;20038;-71
2023/05/17 12:53:55;;;;;;;20.13;2.97;;;;;;;;;;5014543;28;20049;-71
2023/05/17 12:56:22;;;;;;;14.57;2.25;;;;;;;;;;5026195;28;20100;-71
2023/05/17 12:59:03;;;;;;;13.18;2.30;;;;;;;;;;5024994;28;20049;-71
2023/05/17 13:01:36;;;;;;;13.52;2.28;;;;;;;;;;5015303;28;20451;-71
2023/05/17 13:04:05;;;;;;;7.72;1.88;;;;;;;;;;5030279;28;20102;-71
2023/05/17 13:06:50;;;;;;;7.95;2.22;;;;;;;;;;5032781;28;20488;-71
2023/05/17 13:09:17;;;;;;;10.70;2.47;;;;;;;;;;5010161;28;20496;-71
2023/05/17 13:11:44;;;;;;;13.90;2.17;;;;;;;;;;5030838;28;20049;-71
2023/05/17 13:14:13;;;;;;;13.07;2.22;;;;;;;;;;5023072;28;20040;-71
2023/05/17 13:16:39;;;;;;;12.65;2.30;;;;;;;;;;5029963;28;20115;-71
2023/05/17 13:19:15;;;;;;;8.35;2.05;;;;;;;;;;5031709;28;20411;-71
2023/05/17 13:21:41;;;;;;;13.52;2.45;;;;;;;;;;5029218;28;20064;-71
2023/05/17 13:24:09;;;;;;;11.60;2.38;;;;;;;;;;5028895;28;20077;-71
2023/05/17 13:26:36;;;;;;;12.55;2.40;;;;;;;;;;5012731;28;20061;-71
2023/05/17 13:29:02;;;;;;;12.32;2.35;;;;;;;;;;5029715;28;20034;-71
2023/05/17 13:31:28;;;;;;;10.00;2.90;;;;;;;;;;5030418;28;20092;-71
2023/05/17 13:33:54;;;;;;;15.70;2.30;;;;;;;;;;5019301;28;20125;-71
2023/05/17 13:36:20;;;;;;;11.55;2.90;;;;;;;;;;5030364;28;20046;-71
2023/05/17 13:38:46;;;;;;;18.75;6.25;;;;;;;;;;5019158;28;20057;-71
2023/05/17 13:41:12;;;;;;;11.10;2.00;;;;;;;;;;5024810;28;20099;-71
2023/05/17 13:43:38;;;;;;;12.27;2.50;;;;;;;;;;5029911;28;20049;-71
2023/05/17 13:46:04;;;;;;;11.80;2.28;;;;;;;;;;5031222;28;20060;-71
2023/05/17 13:48:30;;;;;;;13.10;1.92;;;;;;;;;;5031784;28;20112;-71
2023/05/17 13:50:57;;;;;;;12.00;1.80;;;;;;;;;;5030204;28;20049;-71
2023/05/17 13:53:23;;;;;;;14.07;2.40;;;;;;;;;;5031764;28;20041;-71
2023/05/17 13:55:49;;;;;;;13.27;2.50;;;;;;;;;;5017111;28;20436;-71
2023/05/17 13:58:16;;;;;;;12.52;2.47;;;;;;;;;;5035733;28;20076;-71
2023/05/17 14:00:43;;;;;;;10.77;2.10;;;;;;;;;;5035887;28;20124;-72
2023/05/17 14:03:10;;;;;;;12.00;2.35;;;;;;;;;;5031281;28;20042;-72
2023/05/17 14:05:36;;;;;;;11.15;2.17;;;;;;;;;;5037357;28;20100;-72
2023/05/17 14:08:03;;;;;;;11.48;2.10;;;;;;;;;;5015509;28;20053;-71
2023/05/17 14:10:29;;;;;;;11.38;2.33;;;;;;;;;;5015392;28;20054;-71
2023/05/17 14:12:55;;;;;;;14.18;2.35;;;;;;;;;;5024300;28;20389;-71
2023/05/17 14:15:22;;;;;;;10.32;2.10;;;;;;;;;;5034740;28;20055;-71
2023/05/17 14:17:48;;;;;;;13.00;2.55;;;;;;;;;;5034104;28;20053;-72
2023/05/17 14:20:14;;;;;;;10.70;2.10;;;;;;;;;;5035162;28;20054;-71
2023/05/17 14:22:40;;;;;;;8.02;2.00;;;;;;;;;;5033932;28;20064;-72
2023/05/17 14:25:07;;;;;;;11.98;2.08;;;;;;;;;;5034334;28;20503;-71
2023/05/17 14:27:33;;;;;;;10.05;2.13;;;;;;;;;;5032279;28;20521;-71
2023/05/17 14:30:00;;;;;;;9.10;1.73;;;;;;;;;;5034724;28;20041;-71
2023/05/17 14:32:26;;;;;;;9.73;2.33;;;;;;;;;;5017141;28;20049;-71